Time;durP1;ratioP1;P1;durP2;ratioP2;P2;SDS_P1;SDS_P2;PMS_P1;PMS_P2;Temp;Humidity;BMP_temperature;BMP_pressure;BME280_temperature;BME280_humidity;BME280_pressure;Samples;Min_cycle;Max_cycle;Signal;HPM_P1;HPM_P2
2021/01/11 00:03:11;;;;;;;53.85;28.35;;;1.90;99.90;;;;;;12274965;28;20226;-85
2021/01/11 00:09:12;;;;;;;52.42;26.95;;;1.90;99.90;;;;;;12288067;28;20518;-83
2021/01/11 00:15:17;;;;;;;57.67;28.67;;;1.90;99.90;;;;;;12287150;28;20085;-84
2021/01/11 00:21:18;;;;;;;51.90;27.77;;;1.80;99.90;;;;;;12286340;28;20054;-84
2021/01/11 00:27:19;;;;;;;53.72;28.90;;;1.80;99.90;;;;;;12274180;28;20121;-84
2021/01/11 00:33:21;;;;;;;52.42;29.67;;;1.80;99.90;;;;;;12283092;28;20113;-84
2021/01/11 00:39:22;;;;;;;53.78;28.40;;;1.80;99.90;;;;;;12278864;28;20153;-85
2021/01/11 00:45:23;;;;;;;53.60;29.38;;;1.70;99.90;;;;;;12300946;28;20071;-84
2021/01/11 00:51:25;;;;;;;56.40;29.58;;;1.80;99.90;;;;;;12279007;28;20042;-83
2021/01/11 00:57:26;;;;;;;55.17;28.92;;;1.80;99.90;;;;;;12292145;28;20082;-84
2021/01/11 01:03:28;;;;;;;52.03;28.58;;;1.70;99.90;;;;;;12304797;28;20134;-84
2021/01/11 01:09:30;;;;;;;54.50;29.95;;;1.80;99.90;;;;;;12285920;28;20051;-84
2021/01/11 01:15:31;;;;;;;56.88;28.55;;;1.70;99.90;;;;;;12266480;28;20047;-83
2021/01/11 01:21:32;;;;;;;49.55;27.90;;;1.80;99.90;;;;;;12281421;28;20512;-85
2021/01/11 01:27:34;;;;;;;52.88;28.20;;;1.90;99.90;;;;;;12264235;28;20109;-84
2021/01/11 01:33:36;;;;;;;49.85;28.70;;;1.80;99.90;;;;;;12270505;28;20502;-85
2021/01/11 01:39:37;;;;;;;58.60;29.55;;;1.80;99.90;;;;;;12274902;28;20134;-84
2021/01/11 01:45:39;;;;;;;53.60;29.13;;;1.80;99.90;;;;;;12258649;28;20055;-84
2021/01/11 01:51:41;;;;;;;56.17;29.92;;;1.80;99.90;;;;;;12291571;28;20554;-85
2021/01/11 01:57:43;;;;;;;55.22;29.83;;;1.80;99.90;;;;;;12294778;28;20050;-84
2021/01/11 02:03:44;;;;;;;55.75;28.60;;;1.80;99.90;;;;;;12267154;28;20552;-83
2021/01/11 02:10:04;;;;;;;48.97;27.10;;;1.70;99.90;;;;;;12300740;28;20495;-83
2021/01/11 02:16:09;;;;;;;47.72;24.45;;;1.70;99.90;;;;;;12280473;28;20431;-84
2021/01/11 02:22:34;;;;;;;48.88;25.27;;;1.80;99.90;;;;;;12292192;28;20066;-84
2021/01/11 02:28:57;;;;;;;45.45;25.33;;;1.80;99.90;;;;;;12301376;28;20150;-85
2021/01/11 02:35:03;;;;;;;50.20;24.58;;;1.70;99.90;;;;;;12296288;28;20499;-83
2021/01/11 02:41:05;;;;;;;52.97;27.75;;;1.70;99.90;;;;;;12295203;28;20074;-83
2021/01/11 02:47:06;;;;;;;52.50;26.20;;;1.70;99.90;;;;;;12294031;28;20475;-84
2021/01/11 02:53:21;;;;;;;47.75;26.33;;;1.70;99.90;;;;;;12303687;28;20407;-84
2021/01/11 02:59:35;;;;;;;50.47;24.53;;;1.70;99.90;;;;;;12297106;28;20130;-83
2021/01/11 03:05:37;;;;;;;54.17;26.75;;;1.70;99.90;;;;;;12321629;28;20081;-83
2021/01/11 03:11:38;;;;;;;53.38;28.35;;;1.70;99.90;;;;;;12306406;28;20130;-83
2021/01/11 03:17:40;;;;;;;54.08;28.75;;;1.70;99.90;;;;;;12300914;28;20129;-84
2021/01/11 03:23:41;;;;;;;56.38;28.02;;;1.60;99.90;;;;;;12293904;28;20075;-83
2021/01/11 03:29:42;;;;;;;53.38;27.25;;;1.60;99.90;;;;;;12299415;28;20058;-83
2021/01/11 03:35:44;;;;;;;56.38;28.98;;;1.60;99.90;;;;;;12294582;28;20059;-84
2021/01/11 03:41:46;;;;;;;50.80;27.25;;;1.50;99.90;;;;;;12285150;28;20147;-83
2021/01/11 03:47:48;;;;;;;53.28;27.45;;;1.60;99.90;;;;;;12306779;28;20094;-85
2021/01/11 03:53:49;;;;;;;54.85;27.80;;;1.60;99.90;;;;;;12291744;28;20458;-83
2021/01/11 03:59:50;;;;;;;55.97;28.30;;;1.50;99.90;;;;;;12303638;28;20050;-83
2021/01/11 04:05:52;;;;;;;58.08;29.75;;;1.50;99.90;;;;;;12288577;28;20067;-83
2021/01/11 04:11:53;;;;;;;53.25;29.65;;;1.50;99.90;;;;;;12283037;28;20130;-83
2021/01/11 04:17:55;;;;;;;57.95;30.15;;;1.50;99.90;;;;;;12298176;28;20089;-84
2021/01/11 04:23:56;;;;;;;55.40;28.92;;;1.40;99.90;;;;;;12308201;28;20054;-84
2021/01/11 04:29:57;;;;;;;52.85;27.38;;;1.40;99.90;;;;;;12297323;28;20108;-84
2021/01/11 04:35:59;;;;;;;49.25;26.73;;;1.50;99.90;;;;;;12290959;28;20518;-83
2021/01/11 04:42:02;;;;;;;47.17;26.35;;;1.60;99.90;;;;;;12295209;28;20481;-83
2021/01/11 04:48:04;;;;;;;45.42;26.35;;;1.50;99.90;;;;;;12290199;28;20146;-82
2021/01/11 04:54:07;;;;;;;52.28;25.42;;;1.50;99.90;;;;;;12303746;28;20153;-84
2021/01/11 05:00:10;;;;;;;51.63;25.67;;;1.50;99.90;;;;;;12285013;28;20093;-82
2021/01/11 05:06:12;;;;;;;53.10;26.38;;;1.50;99.90;;;;;;12287609;28;20138;-82
2021/01/11 05:12:14;;;;;;;49.88;26.33;;;1.50;99.90;;;;;;12300421;28;20043;-84
2021/01/11 05:18:20;;;;;;;50.88;26.63;;;1.50;99.90;;;;;;12280039;28;20051;-84
2021/01/11 05:24:28;;;;;;;54.42;27.83;;;1.60;99.90;;;;;;12301692;28;20084;-83
2021/01/11 05:30:33;;;;;;;57.20;28.40;;;1.50;99.90;;;;;;12289405;28;20831;-84
2021/01/11 05:36:34;;;;;;;53.13;27.60;;;1.50;99.90;;;;;;12285687;28;20157;-83
2021/01/11 05:42:38;;;;;;;48.92;26.85;;;1.60;99.90;;;;;;12289825;28;20344;-82
2021/01/11 05:48:39;;;;;;;54.40;28.42;;;1.60;99.90;;;;;;12294169;28;20059;-83
2021/01/11 05:54:40;;;;;;;55.10;29.05;;;1.50;99.90;;;;;;12297584;28;20047;-83
2021/01/11 06:00:42;;;;;;;60.83;29.17;;;1.50;99.90;;;;;;12293468;28;20567;-83
2021/01/11 06:06:45;;;;;;;58.75;28.92;;;1.50;99.90;;;;;;12302114;28;20139;-84
2021/01/11 06:12:47;;;;;;;56.30;28.63;;;1.50;99.90;;;;;;12298070;28;20089;-85
2021/01/11 06:18:50;;;;;;;54.50;28.52;;;1.50;99.90;;;;;;12294577;28;20835;-83
2021/01/11 06:24:51;;;;;;;58.22;28.52;;;1.50;99.90;;;;;;12290621;28;20506;-83
2021/01/11 06:30:52;;;;;;;60.20;29.13;;;1.40;99.90;;;;;;12299494;28;20571;-83
2021/01/11 06:36:54;;;;;;;56.38;30.25;;;1.40;99.90;;;;;;12287414;28;20148;-83
2021/01/11 06:42:59;;;;;;;56.30;30.30;;;1.40;99.90;;;;;;12291070;28;20483;-83
2021/01/11 06:49:05;;;;;;;58.67;31.85;;;1.40;99.90;;;;;;12289296;28;20055;-83
2021/01/11 06:55:11;;;;;;;67.55;32.30;;;1.40;99.90;;;;;;12304686;28;20070;-82
2021/01/11 07:01:12;;;;;;;62.15;33.38;;;1.30;99.90;;;;;;12291485;28;20134;-84
2021/01/11 07:07:22;;;;;;;62.38;31.80;;;1.40;99.90;;;;;;12293195;28;20479;-84
2021/01/11 07:13:24;;;;;;;67.43;34.95;;;1.40;99.90;;;;;;12312452;28;20100;-84
2021/01/11 07:19:45;;;;;;;72.32;37.38;;;1.20;99.90;;;;;;12291763;28;20628;-82
2021/01/11 07:25:49;;;;;;;60.10;31.60;;;1.10;99.90;;;;;;12291223;28;20093;-83
2021/01/11 07:31:51;;;;;;;55.30;29.05;;;1.10;99.90;;;;;;12289116;28;20484;-83
2021/01/11 07:37:53;;;;;;;61.13;31.80;;;1.10;99.90;;;;;;12288592;28;20109;-82
2021/01/11 07:44:15;;;;;;;55.17;28.85;;;1.10;99.90;;;;;;12296159;28;20082;-84
2021/01/11 07:50:17;;;;;;;59.42;29.90;;;1.10;99.90;;;;;;12279705;28;20090;-84
2021/01/11 07:56:20;;;;;;;57.83;32.00;;;1.00;99.90;;;;;;12314528;28;20078;-84
2021/01/11 08:02:22;;;;;;;64.57;33.15;;;1.00;99.90;;;;;;12285853;28;20138;-84
2021/01/11 08:08:26;;;;;;;64.35;34.33;;;0.90;99.90;;;;;;12292500;28;20185;-85
2021/01/11 08:14:28;;;;;;;62.35;31.40;;;0.80;99.90;;;;;;12310957;28;20090;-85
2021/01/11 08:20:29;;;;;;;54.50;30.73;;;0.80;99.90;;;;;;12307042;28;20066;-83
2021/01/11 08:26:44;;;;;;;53.72;29.33;;;0.90;99.90;;;;;;12281680;28;20137;-82
2021/01/11 08:32:47;;;;;;;57.83;29.03;;;0.90;99.90;;;;;;12302446;28;20203;-83
2021/01/11 08:39:04;;;;;;;51.10;27.70;;;1.00;99.90;;;;;;12290810;28;20470;-84
2021/01/11 08:45:27;;;;;;;45.42;25.55;;;0.90;99.90;;;;;;12295828;28;20137;-84
2021/01/11 08:51:29;;;;;;;42.35;25.52;;;1.00;99.90;;;;;;12296668;28;20075;-83
2021/01/11 08:57:30;;;;;;;46.33;23.48;;;1.00;99.90;;;;;;12305203;28;20042;-83
2021/01/11 09:03:50;;;;;;;37.05;20.88;;;1.00;99.90;;;;;;12286054;28;20050;-83
2021/01/11 09:09:52;;;;;;;43.53;19.85;;;1.00;99.90;;;;;;12314101;28;20106;-82
2021/01/11 09:15:53;;;;;;;39.22;21.20;;;1.10;99.90;;;;;;12287331;28;20078;-83
2021/01/11 09:21:57;;;;;;;37.38;21.35;;;1.10;99.90;;;;;;12288432;28;20070;-82
2021/01/11 09:28:00;;;;;;;43.20;21.77;;;1.10;99.90;;;;;;12301135;28;20071;-82
2021/01/11 09:34:03;;;;;;;39.30;20.40;;;1.10;99.90;;;;;;12294927;28;20089;-82
2021/01/11 09:40:05;;;;;;;38.55;21.83;;;1.20;99.90;;;;;;12286426;28;20054;-82
2021/01/11 09:46:06;;;;;;;43.83;22.13;;;1.20;99.90;;;;;;12292606;28;20157;-82
2021/01/11 09:52:08;;;;;;;39.83;20.40;;;1.20;99.90;;;;;;12281354;28;20042;-82
2021/01/11 09:58:15;;;;;;;35.33;21.30;;;1.20;99.90;;;;;;12312250;28;20051;-82
2021/01/11 10:04:18;;;;;;;38.55;21.33;;;1.20;99.90;;;;;;12299202;28;20092;-83
2021/01/11 10:10:19;;;;;;;39.47;21.38;;;1.20;99.90;;;;;;12291295;28;20400;-82
2021/01/11 10:16:20;;;;;;;40.58;22.90;;;1.20;99.90;;;;;;12279352;28;20059;-82
2021/01/11 10:22:22;;;;;;;45.47;23.20;;;1.30;99.90;;;;;;12307891;28;20412;-83
2021/01/11 10:28:23;;;;;;;38.83;20.50;;;1.30;99.90;;;;;;12292888;28;20105;-82
2021/01/11 10:34:25;;;;;;;36.63;19.08;;;1.30;99.90;;;;;;12293823;28;20047;-82
2021/01/11 10:40:26;;;;;;;32.80;19.65;;;1.40;99.90;;;;;;12304559;28;20201;-83
2021/01/11 10:46:28;;;;;;;38.05;19.48;;;1.40;99.90;;;;;;12269631;28;550064;-83
2021/01/11 10:52:29;;;;;;;36.38;17.45;;;1.50;99.90;;;;;;12288512;28;20050;-81
2021/01/11 10:58:31;;;;;;;36.33;20.98;;;1.50;99.90;;;;;;12297117;28;20158;-81
2021/01/11 11:04:32;;;;;;;36.83;19.02;;;1.60;99.90;;;;;;12294751;28;20050;-81
2021/01/11 11:10:33;;;;;;;38.20;20.67;;;1.70;99.90;;;;;;12303798;28;20090;-82
2021/01/11 11:16:38;;;;;;;33.05;19.15;;;1.70;99.90;;;;;;12288050;28;20130;-82
2021/01/11 11:22:40;;;;;;;36.97;20.23;;;1.70;99.90;;;;;;12308184;28;20058;-84
2021/01/11 11:28:41;;;;;;;33.08;17.70;;;1.70;99.90;;;;;;12310883;28;20114;-84
2021/01/11 11:34:42;;;;;;;34.25;19.27;;;1.80;99.90;;;;;;12291892;28;20043;-85
2021/01/11 11:40:44;;;;;;;31.08;16.48;;;1.80;99.90;;;;;;12300332;28;20051;-84
2021/01/11 11:46:46;;;;;;;31.88;18.40;;;1.90;99.90;;;;;;12290264;28;20415;-85
2021/01/11 11:52:48;;;;;;;30.50;18.40;;;1.80;99.90;;;;;;12305965;28;20460;-83
2021/01/11 12:28:32;;;;;;;29.45;17.60;;;1.90;99.90;;;;;;12300693;28;20498;-84
2021/01/11 12:34:39;;;;;;;32.20;16.13;;;1.80;99.90;;;;;;12290956;28;20042;-84
2021/01/11 12:55:32;;;;;;;26.23;14.43;;;1.80;99.90;;;;;;12284935;28;20134;-83
2021/01/11 13:01:34;;;;;;;26.02;14.25;;;1.80;99.90;;;;;;12260194;28;20242;-83
2021/01/11 13:07:36;;;;;;;26.65;14.77;;;1.80;99.90;;;;;;12269702;28;20637;-83
2021/01/11 13:13:37;;;;;;;26.02;13.80;;;1.80;99.90;;;;;;12286424;28;20053;-83
2021/01/11 13:19:38;;;;;;;23.88;13.98;;;1.80;99.90;;;;;;12260865;28;20050;-83
2021/01/11 13:25:40;;;;;;;25.60;14.13;;;1.80;99.90;;;;;;12280564;28;20051;-83
2021/01/11 13:31:48;;;;;;;25.48;13.57;;;1.80;99.90;;;;;;12295560;28;20043;-83
2021/01/11 13:37:50;;;;;;;25.58;14.57;;;1.80;99.90;;;;;;12284003;28;20039;-83
2021/01/11 13:43:51;;;;;;;24.30;14.00;;;1.80;99.90;;;;;;12301603;28;20054;-83
2021/01/11 13:49:53;;;;;;;24.27;14.70;;;1.80;99.90;;;;;;12305055;28;20098;-83
2021/01/11 14:03:28;;;;;;;;;;;1.90;99.90;;;;;;12304075;28;20093;-82
2021/01/11 14:17:16;;;;;;;23.23;14.27;;;2.00;99.90;;;;;;12284618;28;20199;-82
2021/01/11 14:23:17;;;;;;;27.88;14.10;;;2.20;99.90;;;;;;12296482;28;20047;-83
2021/01/11 14:29:19;;;;;;;24.05;13.65;;;2.20;99.90;;;;;;12309869;28;20396;-83
2021/01/11 14:35:20;;;;;;;24.35;14.98;;;2.20;99.90;;;;;;12297333;28;20050;-83
2021/01/11 14:41:22;;;;;;;25.20;13.27;;;2.30;99.90;;;;;;12298128;28;20448;-84
2021/01/11 14:47:23;;;;;;;24.85;14.60;;;2.30;99.90;;;;;;12276599;28;20048;-82
2021/01/11 14:53:25;;;;;;;24.65;14.43;;;2.30;99.90;;;;;;12287923;28;20039;-83
2021/01/11 15:06:53;;;;;;;21.70;13.87;;;2.40;99.90;;;;;;12309501;28;20134;-83
2021/01/11 15:12:54;;;;;;;24.30;13.93;;;2.50;99.90;;;;;;12291947;28;20302;-83
2021/01/11 15:18:56;;;;;;;22.90;12.88;;;2.40;99.90;;;;;;12275072;28;20050;-83
2021/01/11 15:24:57;;;;;;;20.23;13.02;;;2.50;99.90;;;;;;12216366;28;20176;-82
2021/01/11 15:30:59;;;;;;;19.98;12.07;;;2.50;99.90;;;;;;12270190;28;20050;-83
2021/01/11 15:37:00;;;;;;;21.02;11.40;;;2.60;99.90;;;;;;12280368;28;20098;-82
2021/01/11 15:43:01;;;;;;;21.17;11.75;;;2.70;99.90;;;;;;12291897;28;20488;-83
2021/01/11 15:49:03;;;;;;;17.20;11.05;;;2.70;99.90;;;;;;12296258;28;20511;-82
2021/01/11 15:55:04;;;;;;;18.83;11.77;;;2.70;99.90;;;;;;12289929;28;20117;-83
2021/01/11 16:01:06;;;;;;;21.63;10.90;;;2.80;99.90;;;;;;12290533;28;20046;-84
2021/01/11 16:07:07;;;;;;;18.45;10.52;;;2.80;99.90;;;;;;12288093;28;20050;-83
2021/01/11 16:13:08;;;;;;;17.33;10.95;;;2.90;99.90;;;;;;12283037;28;20491;-84
2021/01/11 16:19:10;;;;;;;19.77;12.02;;;3.00;99.90;;;;;;12301572;28;20510;-82
2021/01/11 16:25:12;;;;;;;18.55;11.38;;;2.90;99.90;;;;;;12309520;28;20142;-83
2021/01/11 16:31:27;;;;;;;18.40;11.27;;;2.90;99.90;;;;;;12296393;28;20051;-82
2021/01/11 16:37:29;;;;;;;18.42;11.45;;;3.00;99.90;;;;;;12288822;28;20471;-83
2021/01/11 16:43:30;;;;;;;19.25;12.05;;;3.00;99.90;;;;;;12286182;28;20601;-83
2021/01/11 16:49:31;;;;;;;18.23;11.20;;;3.00;99.90;;;;;;12270486;28;20059;-83
2021/01/11 16:55:33;;;;;;;18.08;11.23;;;3.00;99.90;;;;;;12302024;28;20264;-83
2021/01/11 17:01:34;;;;;;;18.45;11.85;;;3.00;99.90;;;;;;12271712;28;20051;-82
2021/01/11 17:07:35;;;;;;;17.27;11.43;;;3.00;99.90;;;;;;12266966;28;20058;-82
2021/01/11 17:13:37;;;;;;;17.50;11.23;;;3.00;99.90;;;;;;12288127;28;20415;-83
2021/01/11 17:19:41;;;;;;;17.08;11.10;;;3.10;99.90;;;;;;12277089;28;20125;-84
2021/01/11 17:25:43;;;;;;;16.73;10.77;;;3.10;99.90;;;;;;12278890;28;20569;-84
2021/01/11 17:31:44;;;;;;;20.50;11.15;;;3.10;99.90;;;;;;12294191;28;20138;-82
2021/01/11 17:37:46;;;;;;;19.00;11.30;;;3.10;99.90;;;;;;12313790;28;20050;-83
2021/01/11 17:43:47;;;;;;;20.63;11.32;;;3.20;99.90;;;;;;12288915;28;20071;-82
2021/01/11 17:49:48;;;;;;;18.45;11.77;;;3.20;99.90;;;;;;12287803;28;20101;-82
2021/01/11 17:55:49;;;;;;;16.20;11.82;;;3.20;99.90;;;;;;12284712;28;20907;-83
2021/01/11 18:01:51;;;;;;;18.58;11.50;;;3.20;99.90;;;;;;12309420;28;20073;-82
2021/01/11 18:07:52;;;;;;;16.05;10.75;;;3.30;99.90;;;;;;12313978;28;20046;-83
2021/01/11 18:13:55;;;;;;;17.60;10.75;;;3.30;99.90;;;;;;12289784;28;20598;-82
2021/01/11 18:19:57;;;;;;;18.10;11.57;;;3.30;99.90;;;;;;12287646;28;20054;-82
2021/01/11 18:25:58;;;;;;;17.67;11.50;;;3.40;99.90;;;;;;12311942;28;20142;-82
2021/01/11 18:32:00;;;;;;;16.67;12.23;;;3.40;99.90;;;;;;12287326;28;20046;-82
2021/01/11 18:38:02;;;;;;;16.27;11.23;;;3.30;99.90;;;;;;12314444;28;20047;-83
2021/01/11 18:44:03;;;;;;;19.88;12.20;;;3.40;99.90;;;;;;12287268;28;20094;-82
2021/01/11 18:50:06;;;;;;;18.65;11.73;;;3.50;99.90;;;;;;12287022;28;20058;-83
2021/01/11 18:56:07;;;;;;;18.05;12.07;;;3.50;99.90;;;;;;12292571;28;20097;-83
2021/01/11 19:02:10;;;;;;;17.95;12.98;;;3.50;99.90;;;;;;12290336;28;20075;-83
2021/01/11 19:08:11;;;;;;;19.00;12.70;;;3.50;99.90;;;;;;12294989;28;20051;-83
2021/01/11 19:14:17;;;;;;;23.08;13.45;;;3.50;99.90;;;;;;12287674;28;20044;-83
2021/01/11 19:20:19;;;;;;;19.67;13.30;;;3.60;99.90;;;;;;12274243;28;20400;-83
2021/01/11 19:26:28;;;;;;;20.73;13.45;;;3.60;99.90;;;;;;12296465;28;20693;-84
2021/01/11 19:32:29;;;;;;;23.90;13.95;;;3.60;99.90;;;;;;12283912;28;20398;-83
2021/01/11 19:38:30;;;;;;;22.00;13.35;;;3.60;99.90;;;;;;12291969;28;20059;-83
2021/01/11 19:44:32;;;;;;;19.95;13.38;;;3.60;99.90;;;;;;12303885;28;20523;-82
2021/01/11 19:50:33;;;;;;;18.90;13.68;;;3.70;99.90;;;;;;12262653;28;20134;-82
2021/01/11 19:56:35;;;;;;;19.17;13.80;;;3.70;99.90;;;;;;12273646;28;20690;-82
2021/01/11 20:02:37;;;;;;;18.10;13.27;;;3.70;99.90;;;;;;12278442;28;20141;-82
2021/01/11 20:08:40;;;;;;;21.42;12.88;;;3.70;99.90;;;;;;12280912;28;20062;-83
2021/01/11 20:14:41;;;;;;;21.13;15.25;;;3.70;99.90;;;;;;12292135;28;20042;-82
2021/01/11 20:20:43;;;;;;;21.83;14.18;;;3.70;99.90;;;;;;12288484;28;20040;-83
2021/01/11 20:26:47;;;;;;;17.30;11.77;;;3.70;99.90;;;;;;12284257;28;20055;-83
2021/01/11 20:32:49;;;;;;;24.00;14.85;;;3.80;99.90;;;;;;12284275;28;20077;-83
2021/01/11 20:38:50;;;;;;;22.98;15.10;;;3.80;99.90;;;;;;12287848;28;20039;-83
2021/01/11 20:44:51;;;;;;;21.48;15.25;;;3.90;99.90;;;;;;12291694;28;20137;-83
2021/01/11 20:50:52;;;;;;;21.13;14.32;;;3.80;99.90;;;;;;12282841;28;20082;-82
2021/01/11 20:56:54;;;;;;;22.08;14.60;;;3.90;99.90;;;;;;12284954;28;20098;-83
2021/01/11 21:02:56;;;;;;;22.38;14.75;;;3.90;99.90;;;;;;12284278;28;20499;-83
2021/01/11 21:08:57;;;;;;;22.88;14.90;;;3.90;99.90;;;;;;12286347;28;20055;-83
2021/01/11 21:14:58;;;;;;;25.33;15.55;;;4.00;99.90;;;;;;12280944;28;20145;-82
2021/01/11 21:21:00;;;;;;;23.95;15.05;;;4.10;99.90;;;;;;12292046;28;20372;-83
2021/01/11 21:27:03;;;;;;;28.70;17.48;;;4.00;99.90;;;;;;12299590;28;20074;-85
2021/01/11 21:33:05;;;;;;;22.30;16.37;;;3.80;99.90;;;;;;12295414;28;20054;-85
2021/01/11 21:39:08;;;;;;;30.25;17.65;;;3.80;99.90;;;;;;12302899;28;20059;-85
2021/01/11 21:45:10;;;;;;;27.27;17.02;;;3.70;99.90;;;;;;12294185;28;20134;-85
2021/01/11 21:51:12;;;;;;;29.77;17.48;;;3.70;99.90;;;;;;12302859;28;20098;-84
2021/01/11 21:57:14;;;;;;;27.52;16.88;;;3.60;99.90;;;;;;12292690;28;20089;-84
2021/01/11 22:03:15;;;;;;;27.33;18.05;;;3.60;99.90;;;;;;12292386;28;20047;-85
2021/01/11 22:09:17;;;;;;;30.67;18.45;;;3.60;99.90;;;;;;12291714;28;20487;-85
2021/01/11 22:15:19;;;;;;;27.90;19.00;;;3.60;99.90;;;;;;12296234;28;20043;-84
2021/01/11 22:21:21;;;;;;;30.60;18.70;;;3.60;99.90;;;;;;12276555;28;20074;-86
2021/01/11 22:27:24;;;;;;;31.88;19.90;;;3.60;99.90;;;;;;12301469;28;20097;-85
2021/01/11 22:33:27;;;;;;;27.70;19.63;;;3.70;99.90;;;;;;12315835;28;20046;-83
2021/01/11 22:39:28;;;;;;;29.23;19.52;;;3.70;99.90;;;;;;12307410;28;20103;-85
2021/01/11 22:45:30;;;;;;;32.00;20.17;;;3.70;99.90;;;;;;12294322;28;20101;-85
2021/01/11 22:51:31;;;;;;;29.25;19.85;;;3.80;99.90;;;;;;12292901;28;20054;-84
2021/01/11 22:57:35;;;;;;;25.08;16.70;;;3.80;99.90;;;;;;12278462;28;20083;-85
2021/01/11 23:03:37;;;;;;;24.25;16.15;;;3.90;99.90;;;;;;12294064;28;20058;-84
2021/01/11 23:09:40;;;;;;;23.00;16.02;;;3.90;99.90;;;;;;12283020;28;20097;-84
2021/01/11 23:15:47;;;;;;;20.88;14.73;;;4.00;99.90;;;;;;12306708;28;20458;-84
2021/01/11 23:21:50;;;;;;;19.80;14.85;;;3.90;99.90;;;;;;12282876;28;20051;-84
2021/01/11 23:27:51;;;;;;;23.88;15.75;;;3.90;99.90;;;;;;12289730;28;20051;-84
2021/01/11 23:33:52;;;;;;;22.23;15.52;;;3.90;99.90;;;;;;12287973;28;20102;-84
2021/01/11 23:39:54;;;;;;;23.13;15.90;;;3.90;99.90;;;;;;12297018;28;20055;-85
2021/01/11 23:45:55;;;;;;;20.75;13.93;;;4.00;99.90;;;;;;12326497;28;20062;-84
2021/01/11 23:51:57;;;;;;;21.15;14.98;;;4.00;99.90;;;;;;12341697;28;20051;-84
2021/01/11 23:57:58;;;;;;;19.65;13.95;;;4.10;99.90;;;;;;12336399;28;20050;-85
